Metar Aviation Weather Data     EFOU Oulu Airport
Temperature
20°C Temperature
16°C Dewpoint
78% Humidity



Wind
2 M/S
5 MPH
8 KM/H
4 KTS



170°
S
Current Conditions

Clear Clear
Pressure 1017.92 (hPa) - 30.06 (inHg)
Visibility 6.2 (mile) - 10 (km)
Airport
Airport-code EFOU

Location: Oulu Airport
Distance: 83 (km)

Metar:
EFOU 150720Z AUTO 17004KT 120V210 CAVOK 20/16 Q1018

Time: 15-08-2022 10:20 EEST